sensor_id;sensor_type;location;lat;lon;timestamp;pressure;altitude;pressure_sealevel;temperature;humidity
4133;BME280;2080;51.038;7.008;2023-04-01T00:00:33;74203.91;;;-142.53;86.48
4133;BME280;2080;51.038;7.008;2023-04-01T00:02:58;74205.84;;;-142.53;85.96
4133;BME280;2080;51.038;7.008;2023-04-01T00:05:27;74215.53;;;-142.53;85.83
4133;BME280;2080;51.038;7.008;2023-04-01T00:07:55;74192.25;;;-142.53;85.48
4133;BME280;2080;51.038;7.008;2023-04-01T00:10:20;74180.59;;;-142.53;84.97
4133;BME280;2080;51.038;7.008;2023-04-01T00:12:50;74213.59;;;-142.53;84.98
4133;BME280;2080;51.038;7.008;2023-04-01T00:15:18;74168.97;;;-142.53;84.41
4133;BME280;2080;51.038;7.008;2023-04-01T00:17:43;74188.38;;;-142.53;84.83
4133;BME280;2080;51.038;7.008;2023-04-01T00:20:09;74215.53;;;-142.53;84.69
4133;BME280;2080;51.038;7.008;2023-04-01T00:22:34;74184.50;;;-142.53;84.76
4133;BME280;2080;51.038;7.008;2023-04-01T00:25:03;74200.00;;;-142.53;84.59
4133;BME280;2080;51.038;7.008;2023-04-01T00:27:31;74192.25;;;-142.53;84.82
4133;BME280;2080;51.038;7.008;2023-04-01T00:29:56;74180.59;;;-142.53;83.62
4133;BME280;2080;51.038;7.008;2023-04-01T00:32:21;74176.72;;;-142.53;84.71
4133;BME280;2080;51.038;7.008;2023-04-01T00:34:50;74168.97;;;-142.53;84.18
4133;BME280;2080;51.038;7.008;2023-04-01T00:37:17;74198.06;;;-142.53;85.32
4133;BME280;2080;51.038;7.008;2023-04-01T00:39:42;74192.25;;;-142.53;85.39
4133;BME280;2080;51.038;7.008;2023-04-01T00:42:09;74211.66;;;-142.53;85.93
4133;BME280;2080;51.038;7.008;2023-04-01T00:44:37;74219.44;;;-142.53;85.81
4133;BME280;2080;51.038;7.008;2023-04-01T00:47:02;74188.38;;;-142.53;85.80
4133;BME280;2080;51.038;7.008;2023-04-01T00:49:34;74192.25;;;-142.53;85.17
4133;BME280;2080;51.038;7.008;2023-04-01T00:52:05;74219.44;;;-142.53;85.80
4133;BME280;2080;51.038;7.008;2023-04-01T00:54:32;74200.00;;;-142.53;85.61
4133;BME280;2080;51.038;7.008;2023-04-01T00:57:02;74215.53;;;-142.53;86.50
4133;BME280;2080;51.038;7.008;2023-04-01T00:59:35;74194.19;;;-142.53;84.90
4133;BME280;2080;51.038;7.008;2023-04-01T01:02:07;74211.66;;;-142.53;85.06
4133;BME280;2080;51.038;7.008;2023-04-01T01:04:34;74201.97;;;-142.53;85.44
4133;BME280;2080;51.038;7.008;2023-04-01T01:07:42;74161.19;;;-142.53;85.00
4133;BME280;2080;51.038;7.008;2023-04-01T01:10:19;74168.97;;;-142.53;84.38
4133;BME280;2080;51.038;7.008;2023-04-01T01:13:10;74172.84;;;-142.53;84.38
4133;BME280;2080;51.038;7.008;2023-04-01T01:18:35;74231.06;;;-142.53;86.27
4133;BME280;2080;51.038;7.008;2023-04-01T01:26:46;74192.25;;;-142.53;86.77
4133;BME280;2080;51.038;7.008;2023-04-01T01:34:36;74176.72;;;-142.53;87.44
4133;BME280;2080;51.038;7.008;2023-04-01T01:37:20;74196.13;;;-142.53;87.57
4133;BME280;2080;51.038;7.008;2023-04-01T01:39:52;74200.00;;;-142.53;87.07
4133;BME280;2080;51.038;7.008;2023-04-01T01:42:22;74198.06;;;-142.53;87.45
4133;BME280;2080;51.038;7.008;2023-04-01T01:44:52;74167.03;;;-142.53;85.59
4133;BME280;2080;51.038;7.008;2023-04-01T01:47:22;74165.06;;;-142.53;85.36
4133;BME280;2080;51.038;7.008;2023-04-01T01:49:51;74165.06;;;-142.53;86.26
4133;BME280;2080;51.038;7.008;2023-04-01T01:52:21;74188.38;;;-142.53;86.35
4133;BME280;2080;51.038;7.008;2023-04-01T01:54:51;74215.53;;;-142.53;87.76
4133;BME280;2080;51.038;7.008;2023-04-01T01:57:24;74219.44;;;-142.53;88.05
4133;BME280;2080;51.038;7.008;2023-04-01T01:59:53;74188.38;;;-142.53;89.22
4133;BME280;2080;51.038;7.008;2023-04-01T02:02:23;74207.78;;;-142.53;89.09
4133;BME280;2080;51.038;7.008;2023-04-01T02:04:50;74200.00;;;-142.53;89.16
4133;BME280;2080;51.038;7.008;2023-04-01T02:07:26;74207.78;;;-142.53;89.32
4133;BME280;2080;51.038;7.008;2023-04-01T02:09:57;74242.72;;;-142.53;91.81
4133;BME280;2080;51.038;7.008;2023-04-01T02:12:25;74231.06;;;-142.53;92.03
4133;BME280;2080;51.038;7.008;2023-04-01T02:14:52;74254.38;;;-142.53;92.00
4133;BME280;2080;51.038;7.008;2023-04-01T02:17:22;74238.84;;;-142.53;91.88
4133;BME280;2080;51.038;7.008;2023-04-01T02:20:10;74246.59;;;-142.53;92.22
4133;BME280;2080;51.038;7.008;2023-04-01T02:22:46;74250.47;;;-142.53;92.13
4133;BME280;2080;51.038;7.008;2023-04-01T02:25:17;74234.97;;;-142.53;91.78
4133;BME280;2080;51.038;7.008;2023-04-01T02:27:44;74248.53;;;-142.53;92.25
4133;BME280;2080;51.038;7.008;2023-04-01T02:30:12;74269.91;;;-142.53;93.17
4133;BME280;2080;51.038;7.008;2023-04-01T02:32:39;74250.47;;;-142.53;93.86
4133;BME280;2080;51.038;7.008;2023-04-01T02:35:13;74281.53;;;-142.53;94.36
4133;BME280;2080;51.038;7.008;2023-04-01T02:37:41;74293.19;;;-142.53;95.35
4133;BME280;2080;51.038;7.008;2023-04-01T02:40:08;74273.78;;;-142.53;95.15
4133;BME280;2080;51.038;7.008;2023-04-01T02:42:37;74287.38;;;-142.53;96.00
4133;BME280;2080;51.038;7.008;2023-04-01T02:45:03;74295.13;;;-142.53;97.22
4133;BME280;2080;51.038;7.008;2023-04-01T02:47:28;74308.72;;;-142.53;98.21
4133;BME280;2080;51.038;7.008;2023-04-01T02:49:56;74295.13;;;-142.53;97.66
4133;BME280;2080;51.038;7.008;2023-04-01T02:52:27;74289.31;;;-142.53;98.87
4133;BME280;2080;51.038;7.008;2023-04-01T02:54:56;74285.44;;;-142.53;99.02
4133;BME280;2080;51.038;7.008;2023-04-01T02:57:24;74285.44;;;-142.53;99.43
4133;BME280;2080;51.038;7.008;2023-04-01T02:59:50;74277.66;;;-142.53;98.80
4133;BME280;2080;51.038;7.008;2023-04-01T03:02:18;74267.97;;;-142.53;99.49
4133;BME280;2080;51.038;7.008;2023-04-01T03:04:45;74273.78;;;-142.53;99.64
4133;BME280;2080;51.038;7.008;2023-04-01T03:07:11;74269.91;;;-142.53;99.63
4133;BME280;2080;51.038;7.008;2023-04-01T03:09:37;74281.53;;;-142.53;100.00
4133;BME280;2080;51.038;7.008;2023-04-01T03:12:05;74293.19;;;-142.53;100.00
4133;BME280;2080;51.038;7.008;2023-04-01T03:14:30;74283.50;;;-142.53;100.00
4133;BME280;2080;51.038;7.008;2023-04-01T03:16:56;74320.38;;;-142.53;100.00
4133;BME280;2080;51.038;7.008;2023-04-01T03:19:23;74289.31;;;-142.53;100.00
4133;BME280;2080;51.038;7.008;2023-04-01T03:21:49;74304.84;;;-142.53;100.00
4133;BME280;2080;51.038;7.008;2023-04-01T03:24:14;74308.72;;;-142.53;99.96
4133;BME280;2080;51.038;7.008;2023-04-01T03:26:40;74285.44;;;-142.53;99.10
4133;BME280;2080;51.038;7.008;2023-04-01T03:29:07;74297.06;;;-142.53;100.00
4133;BME280;2080;51.038;7.008;2023-04-01T03:31:33;74299.00;;;-142.53;99.58
4133;BME280;2080;51.038;7.008;2023-04-01T03:33:59;74304.84;;;-142.53;99.51
4133;BME280;2080;51.038;7.008;2023-04-01T03:36:25;74308.72;;;-142.53;99.00
4133;BME280;2080;51.038;7.008;2023-04-01T03:38:52;74295.13;;;-142.53;97.92
4133;BME280;2080;51.038;7.008;2023-04-01T03:41:18;74295.13;;;-142.53;98.74
4133;BME280;2080;51.038;7.008;2023-04-01T03:43:46;74293.19;;;-142.53;98.41
4133;BME280;2080;51.038;7.008;2023-04-01T03:46:17;74308.72;;;-142.53;98.69
4133;BME280;2080;51.038;7.008;2023-04-01T03:48:42;74287.38;;;-142.53;98.08
4133;BME280;2080;51.038;7.008;2023-04-01T03:51:08;74295.13;;;-142.53;98.88
4133;BME280;2080;51.038;7.008;2023-04-01T03:53:35;74291.25;;;-142.53;97.90
4133;BME280;2080;51.038;7.008;2023-04-01T03:56:09;74266.00;;;-142.53;97.31
4133;BME280;2080;51.038;7.008;2023-04-01T03:58:37;74285.44;;;-142.53;98.73
4133;BME280;2080;51.038;7.008;2023-04-01T04:01:17;74281.53;;;-142.53;98.82
4133;BME280;2080;51.038;7.008;2023-04-01T04:03:42;74293.19;;;-142.53;98.72
4133;BME280;2080;51.038;7.008;2023-04-01T04:06:13;74293.19;;;-142.53;99.39
4133;BME280;2080;51.038;7.008;2023-04-01T04:08:39;74308.72;;;-142.53;99.98
4133;BME280;2080;51.038;7.008;2023-04-01T04:11:09;74320.38;;;-142.53;100.00
4133;BME280;2080;51.038;7.008;2023-04-01T04:13:34;74304.84;;;-142.53;99.99
4133;BME280;2080;51.038;7.008;2023-04-01T04:16:03;74299.00;;;-142.53;100.00
4133;BME280;2080;51.038;7.008;2023-04-01T04:18:28;74293.19;;;-142.53;100.00
4133;BME280;2080;51.038;7.008;2023-04-01T04:20:54;74293.19;;;-142.53;100.00
4133;BME280;2080;51.038;7.008;2023-04-01T04:23:22;74320.38;;;-142.53;100.00
4133;BME280;2080;51.038;7.008;2023-04-01T04:28:20;74289.31;;;-142.53;100.00
4133;BME280;2080;51.038;7.008;2023-04-01T04:30:45;74328.13;;;-142.53;100.00
4133;BME280;2080;51.038;7.008;2023-04-01T04:33:10;74300.97;;;-142.53;100.00
4133;BME280;2080;51.038;7.008;2023-04-01T04:35:36;74316.47;;;-142.53;100.00
4133;BME280;2080;51.038;7.008;2023-04-01T04:38:04;74300.97;;;-142.53;100.00
4133;BME280;2080;51.038;7.008;2023-04-01T04:40:29;74293.19;;;-142.53;100.00
4133;BME280;2080;51.038;7.008;2023-04-01T04:42:57;74332.00;;;-142.53;100.00
4133;BME280;2080;51.038;7.008;2023-04-01T04:45:25;74289.31;;;-142.53;100.00
4133;BME280;2080;51.038;7.008;2023-04-01T04:47:52;74297.06;;;-142.53;100.00
4133;BME280;2080;51.038;7.008;2023-04-01T04:50:17;74271.84;;;-142.53;99.33
4133;BME280;2080;51.038;7.008;2023-04-01T04:52:47;74289.31;;;-142.53;100.00
4133;BME280;2080;51.038;7.008;2023-04-01T04:55:13;74277.66;;;-142.53;99.75
4133;BME280;2080;51.038;7.008;2023-04-01T04:57:40;74320.38;;;-142.53;100.00
4133;BME280;2080;51.038;7.008;2023-04-01T05:00:08;74304.84;;;-142.53;100.00
4133;BME280;2080;51.038;7.008;2023-04-01T05:02:35;74328.13;;;-142.53;100.00
4133;BME280;2080;51.038;7.008;2023-04-01T05:05:01;74293.19;;;-142.53;100.00
4133;BME280;2080;51.038;7.008;2023-04-01T05:07:26;74324.25;;;-142.53;100.00
4133;BME280;2080;51.038;7.008;2023-04-01T05:09:51;74335.91;;;-142.53;100.00
4133;BME280;2080;51.038;7.008;2023-04-01T05:12:17;74299.00;;;-142.53;100.00
4133;BME280;2080;51.038;7.008;2023-04-01T05:14:42;74308.72;;;-142.53;100.00
4133;BME280;2080;51.038;7.008;2023-04-01T05:17:12;74312.59;;;-142.53;100.00
4133;BME280;2080;51.038;7.008;2023-04-01T05:19:40;74310.66;;;-142.53;100.00
4133;BME280;2080;51.038;7.008;2023-04-01T05:22:06;74308.72;;;-142.53;100.00
4133;BME280;2080;51.038;7.008;2023-04-01T05:24:32;74324.25;;;-142.53;100.00
4133;BME280;2080;51.038;7.008;2023-04-01T05:26:58;74322.31;;;-142.53;100.00
4133;BME280;2080;51.038;7.008;2023-04-01T05:29:24;74328.13;;;-142.53;100.00
4133;BME280;2080;51.038;7.008;2023-04-01T05:31:49;74328.13;;;-142.53;100.00
4133;BME280;2080;51.038;7.008;2023-04-01T05:34:17;74343.66;;;-142.53;100.00
4133;BME280;2080;51.038;7.008;2023-04-01T05:36:43;74328.13;;;-142.53;100.00
4133;BME280;2080;51.038;7.008;2023-04-01T05:39:09;74326.19;;;-142.53;100.00
4133;BME280;2080;51.038;7.008;2023-04-01T05:41:35;74339.78;;;-142.53;100.00
4133;BME280;2080;51.038;7.008;2023-04-01T05:44:00;74320.38;;;-142.53;100.00
4133;BME280;2080;51.038;7.008;2023-04-01T05:46:28;74316.47;;;-142.53;100.00
4133;BME280;2080;51.038;7.008;2023-04-01T05:48:56;74320.38;;;-142.53;100.00
4133;BME280;2080;51.038;7.008;2023-04-01T05:51:22;74351.44;;;-142.53;100.00
4133;BME280;2080;51.038;7.008;2023-04-01T05:53:52;74353.38;;;-142.53;100.00
4133;BME280;2080;51.038;7.008;2023-04-01T05:56:18;74330.06;;;-142.53;100.00
4133;BME280;2080;51.038;7.008;2023-04-01T05:58:46;74333.97;;;-142.53;100.00
4133;BME280;2080;51.038;7.008;2023-04-01T06:01:15;74318.44;;;-142.53;100.00
4133;BME280;2080;51.038;7.008;2023-04-01T06:03:40;74337.84;;;-142.53;100.00
4133;BME280;2080;51.038;7.008;2023-04-01T06:06:18;74324.25;;;-142.53;100.00
4133;BME280;2080;51.038;7.008;2023-04-01T06:08:45;74339.78;;;-142.53;100.00
4133;BME280;2080;51.038;7.008;2023-04-01T06:11:26;74339.78;;;-142.53;100.00
4133;BME280;2080;51.038;7.008;2023-04-01T06:31:05;74339.78;;;-142.53;100.00
4133;BME280;2080;51.038;7.008;2023-04-01T06:33:56;74343.66;;;-142.53;100.00
4133;BME280;2080;51.038;7.008;2023-04-01T06:39:59;74328.13;;;-142.53;100.00
4133;BME280;2080;51.038;7.008;2023-04-01T06:54:00;74306.78;;;-142.53;100.00
4133;BME280;2080;51.038;7.008;2023-04-01T06:56:29;74328.13;;;-142.53;100.00
4133;BME280;2080;51.038;7.008;2023-04-01T06:59:12;74316.47;;;-142.53;100.00
4133;BME280;2080;51.038;7.008;2023-04-01T07:04:17;74304.84;;;-142.53;100.00
4133;BME280;2080;51.038;7.008;2023-04-01T07:06:54;74316.47;;;-142.53;100.00
4133;BME280;2080;51.038;7.008;2023-04-01T07:09:26;74328.13;;;-142.53;100.00
4133;BME280;2080;51.038;7.008;2023-04-01T07:11:58;74335.91;;;-142.53;100.00
4133;BME280;2080;51.038;7.008;2023-04-01T07:14:30;74345.59;;;-142.53;100.00
4133;BME280;2080;51.038;7.008;2023-04-01T07:17:27;74355.31;;;-142.53;100.00
4133;BME280;2080;51.038;7.008;2023-04-01T07:22:33;74366.94;;;-142.53;100.00
4133;BME280;2080;51.038;7.008;2023-04-01T07:25:35;74347.53;;;-142.53;100.00
4133;BME280;2080;51.038;7.008;2023-04-01T07:28:10;74378.59;;;-142.53;100.00
4133;BME280;2080;51.038;7.008;2023-04-01T07:34:01;74372.78;;;-142.53;100.00
4133;BME280;2080;51.038;7.008;2023-04-01T07:36:35;74378.59;;;-142.53;100.00
4133;BME280;2080;51.038;7.008;2023-04-01T07:47:53;74374.72;;;-142.53;100.00
4133;BME280;2080;51.038;7.008;2023-04-01T07:50:28;74409.66;;;-142.53;100.00
4133;BME280;2080;51.038;7.008;2023-04-01T07:56:09;74359.19;;;-142.53;100.00
4133;BME280;2080;51.038;7.008;2023-04-01T07:58:44;74339.78;;;-142.53;100.00
4133;BME280;2080;51.038;7.008;2023-04-01T08:12:18;74343.66;;;-142.53;100.00
4133;BME280;2080;51.038;7.008;2023-04-01T08:15:10;74370.84;;;-142.53;100.00
4133;BME280;2080;51.038;7.008;2023-04-01T08:23:38;74355.31;;;-142.53;100.00
4133;BME280;2080;51.038;7.008;2023-04-01T08:26:30;74365.00;;;-142.53;100.00
4133;BME280;2080;51.038;7.008;2023-04-01T08:34:20;74401.91;;;-142.53;100.00
4133;BME280;2080;51.038;7.008;2023-04-01T08:36:57;74417.44;;;-142.53;100.00
4133;BME280;2080;51.038;7.008;2023-04-01T08:40:02;74390.25;;;-142.53;100.00
4133;BME280;2080;51.038;7.008;2023-04-01T08:42:49;74401.91;;;-142.53;100.00
4133;BME280;2080;51.038;7.008;2023-04-01T08:53:52;74423.25;;;-142.53;100.00
4133;BME280;2080;51.038;7.008;2023-04-01T08:56:36;74380.53;;;-142.53;100.00
4133;BME280;2080;51.038;7.008;2023-04-01T09:12:51;74415.47;;;-142.53;100.00
4133;BME280;2080;51.038;7.008;2023-04-01T09:18:28;74394.13;;;-142.53;100.00
4133;BME280;2080;51.038;7.008;2023-04-01T09:37:35;74355.31;;;-142.53;100.00
4133;BME280;2080;51.038;7.008;2023-04-01T09:42:54;74394.13;;;-142.53;100.00
4133;BME280;2080;51.038;7.008;2023-04-01T09:46:04;74370.84;;;-142.53;100.00
4133;BME280;2080;51.038;7.008;2023-04-01T09:49:03;74398.00;;;-142.53;100.00
4133;BME280;2080;51.038;7.008;2023-04-01T09:52:09;74425.19;;;-142.53;100.00
4133;BME280;2080;51.038;7.008;2023-04-01T10:13:55;74566.91;;;-142.53;100.00
4133;BME280;2080;51.038;7.008;2023-04-01T10:25:02;74442.66;;;-142.53;100.00
4133;BME280;2080;51.038;7.008;2023-04-01T10:27:55;74510.59;;;-142.53;100.00
4133;BME280;2080;51.038;7.008;2023-04-01T10:38:50;74460.13;;;-142.53;100.00
4133;BME280;2080;51.038;7.008;2023-04-01T10:54:51;74483.44;;;-142.53;100.00
4133;BME280;2080;51.038;7.008;2023-04-01T11:23:44;74510.59;;;-142.53;100.00
4133;BME280;2080;51.038;7.008;2023-04-01T11:26:36;74520.31;;;-142.53;100.00
4133;BME280;2080;51.038;7.008;2023-04-01T11:29:25;74497.00;;;-142.53;100.00
4133;BME280;2080;51.038;7.008;2023-04-01T11:39:59;74456.25;;;-142.53;100.00
4133;BME280;2080;51.038;7.008;2023-04-01T11:45:37;74436.84;;;-142.53;100.00
4133;BME280;2080;51.038;7.008;2023-04-01T11:56:27;74359.19;;;-142.53;99.39
4133;BME280;2080;51.038;7.008;2023-04-01T12:10:21;74392.19;;;-142.53;97.52
4133;BME280;2080;51.038;7.008;2023-04-01T12:16:03;74343.66;;;-142.53;97.04
4133;BME280;2080;51.038;7.008;2023-04-01T12:18:48;74335.91;;;-142.53;95.53
4133;BME280;2080;51.038;7.008;2023-04-01T12:21:36;74363.06;;;-142.53;95.16
4133;BME280;2080;51.038;7.008;2023-04-01T12:32:40;74347.53;;;-142.53;96.77
4133;BME280;2080;51.038;7.008;2023-04-01T12:35:19;74366.94;;;-142.53;94.92
4133;BME280;2080;51.038;7.008;2023-04-01T12:37:55;74425.19;;;-142.53;97.61
4133;BME280;2080;51.038;7.008;2023-04-01T12:40:48;74452.38;;;-142.53;98.38
4133;BME280;2080;51.038;7.008;2023-04-01T12:49:00;74464.00;;;-142.53;97.77
4133;BME280;2080;51.038;7.008;2023-04-01T12:52:04;74415.47;;;-142.53;98.10
4133;BME280;2080;51.038;7.008;2023-04-01T13:16:42;74514.50;;;-142.53;100.00
4133;BME280;2080;51.038;7.008;2023-04-01T13:19:21;74537.78;;;-142.53;100.00
4133;BME280;2080;51.038;7.008;2023-04-01T13:21:57;74530.03;;;-142.53;100.00
4133;BME280;2080;51.038;7.008;2023-04-01T13:24:41;74561.06;;;-142.53;100.00
4133;BME280;2080;51.038;7.008;2023-04-01T13:27:16;74543.59;;;-142.53;100.00
4133;BME280;2080;51.038;7.008;2023-04-01T13:35:10;74522.25;;;-142.53;100.00
4133;BME280;2080;51.038;7.008;2023-04-01T13:40:18;74549.44;;;-142.53;100.00
4133;BME280;2080;51.038;7.008;2023-04-01T13:42:54;74572.72;;;-142.53;100.00
4133;BME280;2080;51.038;7.008;2023-04-01T13:45:24;74632.91;;;-142.53;100.00
4133;BME280;2080;51.038;7.008;2023-04-01T14:07:59;74557.19;;;-142.53;100.00
4133;BME280;2080;51.038;7.008;2023-04-01T14:10:57;74533.91;;;-142.53;100.00
4133;BME280;2080;51.038;7.008;2023-04-01T14:13:40;74578.56;;;-142.53;100.00
4133;BME280;2080;51.038;7.008;2023-04-01T14:19:08;74576.59;;;-142.53;100.00
4133;BME280;2080;51.038;7.008;2023-04-01T14:22:03;74574.66;;;-142.53;100.00
4133;BME280;2080;51.038;7.008;2023-04-01T14:24:58;74533.91;;;-142.53;100.00
4133;BME280;2080;51.038;7.008;2023-04-01T14:27:43;74580.50;;;-142.53;100.00
4133;BME280;2080;51.038;7.008;2023-04-01T14:38:35;74605.72;;;-142.53;100.00
4133;BME280;2080;51.038;7.008;2023-04-01T14:51:47;74615.44;;;-142.53;100.00
4133;BME280;2080;51.038;7.008;2023-04-01T14:54:30;74629.03;;;-142.53;100.00
4133;BME280;2080;51.038;7.008;2023-04-01T14:57:16;74658.16;;;-142.53;100.00
4133;BME280;2080;51.038;7.008;2023-04-01T15:11:11;74673.69;;;-142.53;100.00
4133;BME280;2080;51.038;7.008;2023-04-01T15:19:51;74689.22;;;-142.53;100.00
4133;BME280;2080;51.038;7.008;2023-04-01T15:24:24;74696.97;;;-142.53;100.00
4133;BME280;2080;51.038;7.008;2023-04-01T15:29:35;74681.44;;;-142.53;100.00
4133;BME280;2080;51.038;7.008;2023-04-01T15:37:48;74623.19;;;-142.53;100.00
4133;BME280;2080;51.038;7.008;2023-04-01T15:40:24;74597.97;;;-142.53;100.00
4133;BME280;2080;51.038;7.008;2023-04-01T16:02:32;74636.78;;;-142.53;100.00
4133;BME280;2080;51.038;7.008;2023-04-01T16:22:10;74704.75;;;-142.53;100.00
4133;BME280;2080;51.038;7.008;2023-04-01T16:27:46;74716.38;;;-142.53;100.00
4133;BME280;2080;51.038;7.008;2023-04-01T16:30:27;74739.69;;;-142.53;100.00
4133;BME280;2080;51.038;7.008;2023-04-01T16:35:47;74751.34;;;-142.53;100.00
4133;BME280;2080;51.038;7.008;2023-04-01T16:43:49;74770.75;;;-142.53;100.00
4133;BME280;2080;51.038;7.008;2023-04-01T16:46:34;74759.09;;;-142.53;100.00
4133;BME280;2080;51.038;7.008;2023-04-01T16:49:03;74782.41;;;-142.53;100.00
4133;BME280;2080;51.038;7.008;2023-04-01T16:54:53;74794.03;;;-142.53;100.00
4133;BME280;2080;51.038;7.008;2023-04-01T16:57:56;74817.34;;;-142.53;100.00
4133;BME280;2080;51.038;7.008;2023-04-01T17:00:39;74825.09;;;-142.53;100.00
4133;BME280;2080;51.038;7.008;2023-04-01T17:03:13;74836.75;;;-142.53;100.00
4133;BME280;2080;51.038;7.008;2023-04-01T17:11:18;74856.16;;;-142.53;100.00
4133;BME280;2080;51.038;7.008;2023-04-01T17:16:24;74838.69;;;-142.53;100.00
4133;BME280;2080;51.038;7.008;2023-04-01T17:21:52;74906.66;;;-142.53;100.00
4133;BME280;2080;51.038;7.008;2023-04-01T17:30:26;74898.88;;;-142.53;100.00
4133;BME280;2080;51.038;7.008;2023-04-01T17:33:12;74879.47;;;-142.53;100.00
4133;BME280;2080;51.038;7.008;2023-04-01T17:36:08;74887.22;;;-142.53;100.00
4133;BME280;2080;51.038;7.008;2023-04-01T17:58:29;74918.28;;;-142.53;100.00
4133;BME280;2080;51.038;7.008;2023-04-01T18:12:10;74933.81;;;-142.53;100.00
4133;BME280;2080;51.038;7.008;2023-04-01T18:17:23;74945.47;;;-142.53;100.00
4133;BME280;2080;51.038;7.008;2023-04-01T18:25:22;74980.41;;;-142.53;100.00
4133;BME280;2080;51.038;7.008;2023-04-01T18:30:51;74980.41;;;-142.53;100.00
4133;BME280;2080;51.038;7.008;2023-04-01T18:38:29;74978.47;;;-142.53;100.00
4133;BME280;2080;51.038;7.008;2023-04-01T18:41:12;75027.03;;;-142.53;100.00
4133;BME280;2080;51.038;7.008;2023-04-01T18:49:20;75011.50;;;-142.53;100.00
4133;BME280;2080;51.038;7.008;2023-04-01T18:52:31;75023.13;;;-142.53;100.00
4133;BME280;2080;51.038;7.008;2023-04-01T18:57:50;75023.13;;;-142.53;100.00
4133;BME280;2080;51.038;7.008;2023-04-01T19:00:39;75030.91;;;-142.53;100.00
4133;BME280;2080;51.038;7.008;2023-04-01T19:03:26;75034.78;;;-142.53;100.00
4133;BME280;2080;51.038;7.008;2023-04-01T19:06:00;75030.91;;;-142.53;100.00
4133;BME280;2080;51.038;7.008;2023-04-01T19:08:33;75034.78;;;-142.53;100.00
4133;BME280;2080;51.038;7.008;2023-04-01T19:21:54;75061.97;;;-142.53;100.00
4133;BME280;2080;51.038;7.008;2023-04-01T19:32:45;75081.38;;;-142.53;100.00
4133;BME280;2080;51.038;7.008;2023-04-01T19:38:26;75073.63;;;-142.53;100.00
4133;BME280;2080;51.038;7.008;2023-04-01T19:44:04;75073.63;;;-142.53;100.00
4133;BME280;2080;51.038;7.008;2023-04-01T19:49:12;75098.84;;;-142.53;100.00
4133;BME280;2080;51.038;7.008;2023-04-01T19:51:59;75112.44;;;-142.53;100.00
4133;BME280;2080;51.038;7.008;2023-04-01T20:04:42;75087.22;;;-142.53;100.00
4133;BME280;2080;51.038;7.008;2023-04-01T20:07:21;75118.28;;;-142.53;100.00
4133;BME280;2080;51.038;7.008;2023-04-01T20:09:54;75112.44;;;-142.53;100.00
4133;BME280;2080;51.038;7.008;2023-04-01T20:17:57;75131.88;;;-142.53;100.00
4133;BME280;2080;51.038;7.008;2023-04-01T20:20:28;75120.22;;;-142.53;100.00
4133;BME280;2080;51.038;7.008;2023-04-01T20:25:52;75131.88;;;-142.53;100.00
4133;BME280;2080;51.038;7.008;2023-04-01T20:36:43;75166.81;;;-142.53;100.00
4133;BME280;2080;51.038;7.008;2023-04-01T20:50:53;75162.94;;;-142.53;100.00
4133;BME280;2080;51.038;7.008;2023-04-01T21:02:05;75162.94;;;-142.53;100.00
4133;BME280;2080;51.038;7.008;2023-04-01T21:10:25;75182.34;;;-142.53;100.00
4133;BME280;2080;51.038;7.008;2023-04-01T21:18:04;75159.06;;;-142.53;100.00
4133;BME280;2080;51.038;7.008;2023-04-01T21:28:51;75170.69;;;-142.53;100.00
4133;BME280;2080;51.038;7.008;2023-04-01T21:40:17;75153.22;;;-142.53;100.00
4133;BME280;2080;51.038;7.008;2023-04-01T21:43:13;75151.28;;;-142.53;100.00
4133;BME280;2080;51.038;7.008;2023-04-01T22:00:27;75164.88;;;-142.53;100.00
4133;BME280;2080;51.038;7.008;2023-04-01T22:08:44;75151.28;;;-142.53;100.00
4133;BME280;2080;51.038;7.008;2023-04-01T22:16:57;75151.28;;;-142.53;100.00
4133;BME280;2080;51.038;7.008;2023-04-01T22:37:53;75164.88;;;-142.53;100.00
4133;BME280;2080;51.038;7.008;2023-04-01T22:41:00;75170.69;;;-142.53;100.00
4133;BME280;2080;51.038;7.008;2023-04-01T22:43:43;75170.69;;;-142.53;100.00
4133;BME280;2080;51.038;7.008;2023-04-01T22:48:58;75182.34;;;-142.53;100.00
4133;BME280;2080;51.038;7.008;2023-04-01T22:51:37;75178.47;;;-142.53;100.00
4133;BME280;2080;51.038;7.008;2023-04-01T22:54:29;75164.88;;;-142.53;100.00
4133;BME280;2080;51.038;7.008;2023-04-01T23:02:13;75194.00;;;-142.53;100.00
4133;BME280;2080;51.038;7.008;2023-04-01T23:04:45;75197.88;;;-142.53;100.00
4133;BME280;2080;51.038;7.008;2023-04-01T23:07:31;75197.88;;;-142.53;100.00
4133;BME280;2080;51.038;7.008;2023-04-01T23:10:01;75197.88;;;-142.53;100.00
4133;BME280;2080;51.038;7.008;2023-04-01T23:12:32;75205.66;;;-142.53;100.00
4133;BME280;2080;51.038;7.008;2023-04-01T23:15:00;75217.31;;;-142.53;100.00
4133;BME280;2080;51.038;7.008;2023-04-01T23:17:39;75207.59;;;-142.53;100.00
4133;BME280;2080;51.038;7.008;2023-04-01T23:20:22;75213.41;;;-142.53;100.00
4133;BME280;2080;51.038;7.008;2023-04-01T23:33:16;75273.59;;;-142.53;100.00
4133;BME280;2080;51.038;7.008;2023-04-01T23:35:51;75260.00;;;-142.53;100.00
4133;BME280;2080;51.038;7.008;2023-04-01T23:38:25;75267.78;;;-142.53;100.00
4133;BME280;2080;51.038;7.008;2023-04-01T23:40:54;75267.78;;;-142.53;100.00
4133;BME280;2080;51.038;7.008;2023-04-01T23:43:29;75261.97;;;-142.53;100.00
4133;BME280;2080;51.038;7.008;2023-04-01T23:45:57;75275.56;;;-142.53;100.00
4133;BME280;2080;51.038;7.008;2023-04-01T23:48:28;75283.31;;;-142.53;100.00
4133;BME280;2080;51.038;7.008;2023-04-01T23:50:56;75296.91;;;-142.53;100.00
4133;BME280;2080;51.038;7.008;2023-04-01T23:53:34;75291.09;;;-142.53;100.00
4133;BME280;2080;51.038;7.008;2023-04-01T23:56:02;75287.19;;;-142.53;100.00
4133;BME280;2080;51.038;7.008;2023-04-01T23:58:46;75293.03;;;-142.53;100.00
